Hlavní strana
METAR-TAF:

METAR-TAF

Letiště :

Lismore, Austrálie

zeměpisná šířka: 28-49-41S, zeměpisná délka: 153-15-36E, výška: 11 m

Aktuální stav počasí

Zpráva byla vytvořena před 33 minutami, v 06:00 UTC
Severovýchodní vítr 13 kt
Teplota 34°C
Vlhkost vzduchu 60%
Tlak 1003 hPa
Viditelnost 10 km a více

METAR: YLIS 210600Z AUTO 04013KT 9999 // NCD 34/25 Q1003

Čas: 17:33 (06:33 UTC)


TAF: chybějící

Stav a předpovědi počasí z více než 4 000 letišť (zprávy METAR a TAF).

Červené a žluté tečky na mapě představují dostupné meteorologické stanice.

Když kurzor umístíte na tečku, zobrazí se název stanice.

Pak kliknutím zobrazíte stav a předpověď počasí.

Chcete-li změnit mapu, kliknutím na zelené tlačítko se znaménkem +mapu přiblížíte, kliknutím na zelené tlačítko se znaménkem – mapu oddálíte a kliknutím na zelené šipky přejdete na sousední mapy.


METAR-TAF: